Terminal Aerodrome Forecast
Issued by NWS Paducah, KY

Home | Current Version | Previous Version | Text Only | Print | Product List | Glossary On
Versions: 1 2 3 4 5 6 7 8 9 10 11 12 13 14 15 16 17 18 19
000
FTUS43 KPAH 192000 AAA
TAFPAH
TAF AMD
KPAH 192046Z 1921/2018 22006KT P6SM SCT030
     FM192130 30015G25KT P6SM VCTS SCT030CB BKN050
     FM192300 22005KT P6SM FEW035 SCT080
     FM201400 26006KT P6SM FEW040 SCT150=

USA.gov is the U.S. government's official web portal to all federal, state and local government web resources and services.